ADDS METAR Data INFO
IDs: Format: Raw Decoded Include TAF

Data at: 1230 UTC 20 Jul 2017

METAR for:PADK (Adak (NAS), AK, US)
Text:PADK 201216Z AUTO 05003KT 5SM SCT006 BKN013 OVC049 08/04 A3008 RMK AO1 P0004
Temperature: 8.0°C ( 46°F)
Dewpoint: 4.0°C ( 39°F) [RH = 76%]
Pressure (altimeter):30.08 inches Hg (1018.7 mb)
Winds:from the NE (50 degrees) at 3 MPH (3 knots; 1.5 m/s)
Visibility: 5 sm ( 8 km)
Ceiling:1300 feet AGL
Clouds: scattered clouds at 600 feet AGL, broken clouds at 1300 feet AGL, overcast cloud deck at 4900 feet AGL
QC Flag:automated observation with no human augmentation
Text:PADK 201156Z AUTO 09003KT 5SM BKN013 OVC023 09/04 A3009 RMK AO1 P0008 60009 70009 10110 20090 57014
Temperature: 9.0°C ( 48°F)
Dewpoint: 4.0°C ( 39°F) [RH = 71%]
Pressure (altimeter):30.09 inches Hg (1019.0 mb)
Winds:from the E (90 degrees) at 3 MPH (3 knots; 1.5 m/s)
Visibility: 5 sm ( 8 km)
Ceiling:1300 feet AGL
Clouds: broken clouds at 1300 feet AGL, overcast cloud deck at 2300 feet AGL
QC Flag:automated observation with no human augmentation
Text:PADK 201136Z AUTO 00000KT 5SM BKN006 OVC011 09/04 A3010 RMK AO1 P0003
Temperature: 9.0°C ( 48°F)
Dewpoint: 4.0°C ( 39°F) [RH = 71%]
Pressure (altimeter):30.10 inches Hg (1019.4 mb)
Winds:calm
Visibility: 5 sm ( 8 km)
Ceiling:600 feet AGL
Clouds: broken clouds at 600 feet AGL, overcast cloud deck at 1100 feet AGL
QC Flag:automated observation with no human augmentation
Text:PADK 201116Z AUTO 10004KT 9SM OVC005 09/04 A3010 RMK AO1
Temperature: 9.0°C ( 48°F)
Dewpoint: 4.0°C ( 39°F) [RH = 71%]
Pressure (altimeter):30.10 inches Hg (1019.4 mb)
Winds:from the E (100 degrees) at 5 MPH (4 knots; 2.1 m/s)
Visibility: 9 sm ( 14 km)
Ceiling:500 feet AGL
Clouds: overcast cloud deck at 500 feet AGL
QC Flag:automated observation with no human augmentation
Text:PADK 201056Z AUTO 00000KT 10SM OVC004 09/04 A3010 RMK AO1 P0001
Temperature: 9.0°C ( 48°F)
Dewpoint: 4.0°C ( 39°F) [RH = 71%]
Pressure (altimeter):30.10 inches Hg (1019.4 mb)
Winds:calm
Visibility:10 or more sm (16+ km)
Ceiling:400 feet AGL
Clouds: overcast cloud deck at 400 feet AGL
QC Flag:automated observation with no human augmentation
Text:PADK 201036Z AUTO 00000KT 10SM OVC004 09/04 A3010 RMK AO1
Temperature: 9.0°C ( 48°F)
Dewpoint: 4.0°C ( 39°F) [RH = 71%]
Pressure (altimeter):30.10 inches Hg (1019.4 mb)
Winds:calm
Visibility:10 or more sm (16+ km)
Ceiling:400 feet AGL
Clouds: overcast cloud deck at 400 feet AGL
QC Flag:automated observation with no human augmentation
Text:PADK 201016Z AUTO 02003KT 9SM OVC005 09/04 A3011 RMK AO1
Temperature: 9.0°C ( 48°F)
Dewpoint: 4.0°C ( 39°F) [RH = 71%]
Pressure (altimeter):30.11 inches Hg (1019.7 mb)
Winds:from the NNE (20 degrees) at 3 MPH (3 knots; 1.5 m/s)
Visibility: 9 sm ( 14 km)
Ceiling:500 feet AGL
Clouds: overcast cloud deck at 500 feet AGL
QC Flag:automated observation with no human augmentation
Text:PADK 200956Z AUTO 31004KT 10SM FEW004 OVC008 09/04 A3011 RMK AO1 WSHFT 29
Temperature: 9.0°C ( 48°F)
Dewpoint: 4.0°C ( 39°F) [RH = 71%]
Pressure (altimeter):30.11 inches Hg (1019.7 mb)
Winds:from the NW (310 degrees) at 5 MPH (4 knots; 2.1 m/s)
Visibility:10 or more sm (16+ km)
Ceiling:800 feet AGL
Clouds: few clouds at 400 feet AGL, overcast cloud deck at 800 feet AGL
QC Flag:automated observation with no human augmentation
Text:PADK 200936Z AUTO 24013KT 10SM BKN006 OVC013 09/04 A3012 RMK AO1
Temperature: 9.0°C ( 48°F)
Dewpoint: 4.0°C ( 39°F) [RH = 71%]
Pressure (altimeter):30.12 inches Hg (1020.1 mb)
Winds:from the WSW (240 degrees) at 15 MPH (13 knots; 6.7 m/s)
Visibility:10 or more sm (16+ km)
Ceiling:600 feet AGL
Clouds: broken clouds at 600 feet AGL, overcast cloud deck at 1300 feet AGL
QC Flag:automated observation with no human augmentation
Text:PADK 200916Z AUTO 15004KT 7SM OVC006 09/04 A3012 RMK AO1
Temperature: 9.0°C ( 48°F)
Dewpoint: 4.0°C ( 39°F) [RH = 71%]
Pressure (altimeter):30.12 inches Hg (1020.1 mb)
Winds:from the SSE (150 degrees) at 5 MPH (4 knots; 2.1 m/s)
Visibility: 7 sm ( 11 km)
Ceiling:600 feet AGL
Clouds: overcast cloud deck at 600 feet AGL
QC Flag:automated observation with no human augmentation
Text:PADK 200856Z AUTO 16006KT 10SM OVC004 09/04 A3013 RMK AO1 52007
Temperature: 9.0°C ( 48°F)
Dewpoint: 4.0°C ( 39°F) [RH = 71%]
Pressure (altimeter):30.13 inches Hg (1020.4 mb)
Winds:from the SSE (160 degrees) at 7 MPH (6 knots; 3.1 m/s)
Visibility:10 or more sm (16+ km)
Ceiling:400 feet AGL
Clouds: overcast cloud deck at 400 feet AGL
QC Flag:automated observation with no human augmentation
Text:PADK 200836Z AUTO 09007KT 10SM BKN005 BKN014 OVC022 09/04 A3014 RMK AO1
Temperature: 9.0°C ( 48°F)
Dewpoint: 4.0°C ( 39°F) [RH = 71%]
Pressure (altimeter):30.14 inches Hg (1020.7 mb)
Winds:from the E (90 degrees) at 8 MPH (7 knots; 3.6 m/s)
Visibility:10 or more sm (16+ km)
Ceiling:500 feet AGL
Clouds: broken clouds at 500 feet AGL, broken clouds at 1400 feet AGL, overcast cloud deck at 2200 feet AGL
QC Flag:automated observation with no human augmentation
Text:PADK 200816Z AUTO 36009KT 10SM FEW006 SCT013 OVC022 09/04 A3014 RMK AO1
Temperature: 9.0°C ( 48°F)
Dewpoint: 4.0°C ( 39°F) [RH = 71%]
Pressure (altimeter):30.14 inches Hg (1020.7 mb)
Winds:from the N (360 degrees) at 10 MPH (9 knots; 4.6 m/s)
Visibility:10 or more sm (16+ km)
Ceiling:2200 feet AGL
Clouds: few clouds at 600 feet AGL, scattered clouds at 1300 feet AGL, overcast cloud deck at 2200 feet AGL
QC Flag:automated observation with no human augmentation
Text:PADK 200756Z AUTO 24008G15KT 7SM BKN005 OVC013 09/04 A3012 RMK AO1
Temperature: 9.0°C ( 48°F)
Dewpoint: 4.0°C ( 39°F) [RH = 71%]
Pressure (altimeter):30.12 inches Hg (1020.1 mb)
Winds:from the WSW (240 degrees) at 9 MPH (8 knots; 4.1 m/s) gusting to 17 MPH (15 knots; 7.7 m/s)
Visibility: 7 sm ( 11 km)
Ceiling:500 feet AGL
Clouds: broken clouds at 500 feet AGL, overcast cloud deck at 1300 feet AGL
QC Flag:automated observation with no human augmentation
Text:PADK 200736Z AUTO 19008KT 10SM BKN006 OVC010 09/04 A3013 RMK AO1
Temperature: 9.0°C ( 48°F)
Dewpoint: 4.0°C ( 39°F) [RH = 71%]
Pressure (altimeter):30.13 inches Hg (1020.4 mb)
Winds:from the S (190 degrees) at 9 MPH (8 knots; 4.1 m/s)
Visibility:10 or more sm (16+ km)
Ceiling:600 feet AGL
Clouds: broken clouds at 600 feet AGL, overcast cloud deck at 1000 feet AGL
QC Flag:automated observation with no human augmentation
Text:PADK 200716Z AUTO 12004KT 10SM BKN010 OVC016 10/04 A3013 RMK AO1
Temperature: 10.0°C ( 50°F)
Dewpoint: 4.0°C ( 39°F) [RH = 66%]
Pressure (altimeter):30.13 inches Hg (1020.4 mb)
Winds:from the ESE (120 degrees) at 5 MPH (4 knots; 2.1 m/s)
Visibility:10 or more sm (16+ km)
Ceiling:1000 feet AGL
Clouds: broken clouds at 1000 feet AGL, overcast cloud deck at 1600 feet AGL
QC Flag:automated observation with no human augmentation
Text:PADK 200656Z AUTO 00000KT 10SM SCT012 OVC020 11/05 A3012 RMK AO1
Temperature: 11.0°C ( 52°F)
Dewpoint: 5.0°C ( 41°F) [RH = 66%]
Pressure (altimeter):30.12 inches Hg (1020.1 mb)
Winds:calm
Visibility:10 or more sm (16+ km)
Ceiling:2000 feet AGL
Clouds: scattered clouds at 1200 feet AGL, overcast cloud deck at 2000 feet AGL
QC Flag:automated observation with no human augmentation
Text:PADK 200636Z AUTO 22017KT 10SM BKN012 BKN016 OVC024 11/05 A3011 RMK AO1
Temperature: 11.0°C ( 52°F)
Dewpoint: 5.0°C ( 41°F) [RH = 66%]
Pressure (altimeter):30.11 inches Hg (1019.7 mb)
Winds:from the SW (220 degrees) at 20 MPH (17 knots; 8.7 m/s)
Visibility:10 or more sm (16+ km)
Ceiling:1200 feet AGL
Clouds: broken clouds at 1200 feet AGL, broken clouds at 1600 feet AGL, overcast cloud deck at 2400 feet AGL
QC Flag:automated observation with no human augmentation

TAF for:PADK (Adak (NAS), AK, US)
Text:No data found